Altoona, WI (54720)

8:32 PM CST on February 07, 2016 (GMT -0600)
Memorial High area | | Change Station
CLOSE
Current Station
Personal Weather Station
Location: Eau Claire, WI
Elevation: 880 ft
Nearby Weather Stations

Elev 880 ft 44.80 °N, 91.48 °W | Updated 11 seconds ago

Overcast
Overcast
30.9 °F
Feels Like 27 °F
N
3.8
Wind Variable Wind from SW
Gusts 15.2 mph

Today
High -- | Low -- °F
--% Chance of Precip.
Yesterday
High -- | Low -- °F
Precip. -- in
Pressure 29.63 in
Visibility 2.0 miles
Clouds Few 900 ft
Mostly Cloudy 1300 ft
Overcast 3300 ft
Windchill 27 °F
Dew Point 28 °F
Humidity 87%
Rainfall 0.00 in
Snow Depth Not available.
7:18 AM 5:22 PM
Waning Crescent, 0% visible
SPECI KEAU 080229Z 31019G24KT 2SM -SN FEW009 BKN013 OVC033 M02/M04 A2963 RMK AO2 PK WND 29027/0159 P0000 T10171044
Pressure 29.63 in
Visibility 2.0 miles
Clouds Few 900 ft
Mostly Cloudy 1300 ft
Overcast 3300 ft
Windchill 27 °F
Dew Point 28 °F
Humidity 87%
Rainfall 0.00 in
Snow Depth Not available.
7:18 AM 5:22 PM
Waning Crescent, 0% visible
SPECI KEAU 080229Z 31019G24KT 2SM -SN FEW009 BKN013 OVC033 M02/M04 A2963 RMK AO2 PK WND 29027/0159 P0000 T10171044

10-Day Weather Forecast

Almanac

Astronomy

Feb. 07, 2016 Rise Set
Actual Time
Civil Twilight
Nautical Twilight
Astronomical Twilight
Moon
Length of Visible Light
Length of Day
Tomorrow will be .
, % of the Moon is Illuminated

Today's Extremes

State Highs State Lows

Community

WunderPhotos

Upload Photos

1,891,373 photos uploaded!

WunderBlog® & News

Nearby

Air Quality

  Air Quality AQ Index Pollutant
Not available.

Snow Depth

Station Depth Elevation

Earthquake Activity

City Distance Mag. Time & Date
Minimum magnitude displayed is 2.5.

Coastal Water Temperatures

Place Temperature

Stations

Nearby Weather Stations

Station Location Temp. Windchill Dew Point Humidity Wind Precip. Elev Updated Type
                   

Watches & Warnings

There are currently no watches in effect.